createdAt,value
2022-11-20T00:01:41.280Z,2.50
2022-11-20T00:04:30.363Z,2.40
2022-11-20T00:07:18.359Z,2.30
2022-11-20T00:10:08.391Z,2.50
2022-11-20T00:12:57.086Z,2.50
2022-11-20T00:15:44.806Z,2.50
2022-11-20T00:18:32.957Z,2.50
2022-11-20T00:21:26.713Z,2.50
2022-11-20T00:24:14.251Z,2.50
2022-11-20T00:27:01.990Z,1.30
2022-11-20T00:29:51.226Z,2.30
2022-11-20T00:32:43.194Z,2.50
2022-11-20T00:35:32.171Z,2.50
2022-11-20T00:38:20.411Z,2.50
2022-11-20T00:41:09.706Z,2.50
2022-11-20T00:43:57.819Z,2.40
2022-11-20T00:46:49.334Z,2.40
2022-11-20T00:49:37.902Z,2.60
2022-11-20T00:52:25.508Z,2.40
2022-11-20T00:55:13.256Z,2.40
2022-11-20T00:58:04.389Z,2.50
2022-11-20T01:00:53.181Z,2.40
2022-11-20T01:03:45.156Z,2.50
2022-11-20T01:06:34.229Z,2.50
2022-11-20T01:09:22.474Z,2.50
2022-11-20T01:12:13.771Z,2.50
2022-11-20T01:15:01.763Z,2.50
2022-11-20T01:17:50.346Z,2.50
2022-11-20T01:20:39.848Z,2.50
2022-11-20T01:23:27.525Z,2.60
2022-11-20T01:26:17.497Z,2.50
2022-11-20T01:29:05.811Z,2.60
2022-11-20T01:31:55.161Z,3.10
2022-11-20T01:34:43.203Z,1.80
2022-11-20T01:37:32.240Z,2.50
2022-11-20T01:40:20.818Z,2.50
2022-11-20T01:43:22.681Z,2.60
2022-11-20T01:46:16.280Z,2.50
2022-11-20T01:49:08.101Z,2.60
2022-11-20T01:51:59.018Z,2.50
2022-11-20T01:54:50.349Z,2.60
2022-11-20T01:57:39.916Z,2.80
2022-11-20T02:00:27.587Z,3.20
2022-11-20T02:03:20.310Z,2.60
2022-11-20T02:06:13.449Z,2.60
2022-11-20T02:09:01.612Z,2.60
2022-11-20T02:11:51.503Z,1.90
2022-11-20T02:14:38.736Z,2.60
2022-11-20T02:17:26.256Z,2.60
2022-11-20T02:20:14.561Z,2.60
2022-11-20T02:23:06.079Z,2.60
2022-11-20T02:25:56.155Z,2.60
2022-11-20T02:28:44.138Z,3.00
2022-11-20T02:31:31.573Z,2.70
2022-11-20T02:34:19.522Z,2.70
2022-11-20T02:37:06.856Z,2.90
2022-11-20T02:39:56.619Z,2.70
2022-11-20T02:42:46.376Z,2.70
2022-11-20T02:45:34.555Z,2.70
2022-11-20T02:48:25.407Z,2.70
2022-11-20T02:51:14.002Z,2.80
2022-11-20T02:54:05.329Z,2.70
2022-11-20T02:56:56.223Z,2.70
2022-11-20T02:59:46.248Z,2.70
2022-11-20T03:02:35.688Z,2.90
2022-11-20T03:05:24.048Z,2.70
2022-11-20T03:08:12.251Z,2.80
2022-11-20T03:11:07.480Z,2.70
2022-11-20T03:13:55.490Z,4.30
2022-11-20T03:16:44.864Z,2.70
2022-11-20T03:19:32.552Z,2.70
2022-11-20T03:22:20.256Z,0.60
2022-11-20T03:25:08.918Z,2.80
2022-11-20T03:27:56.544Z,2.80
2022-11-20T03:30:44.602Z,2.80
2022-11-20T03:33:33.897Z,2.80
2022-11-20T03:36:22.584Z,2.80
2022-11-20T03:39:10.422Z,2.80
2022-11-20T03:41:58.351Z,2.80
2022-11-20T03:44:48.851Z,2.80
2022-11-20T03:47:41.557Z,2.80
2022-11-20T03:50:31.480Z,2.90
2022-11-20T03:53:19.022Z,2.90
2022-11-20T03:56:11.362Z,2.90
2022-11-20T03:58:59.404Z,2.90
2022-11-20T04:01:49.608Z,4.00
2022-11-20T04:04:37.371Z,2.90
2022-11-20T04:07:28.268Z,2.90
2022-11-20T04:10:18.052Z,3.00
2022-11-20T04:13:09.017Z,3.00
2022-11-20T04:15:59.515Z,2.20
2022-11-20T04:18:48.061Z,3.00
2022-11-20T04:21:41.470Z,3.20
2022-11-20T04:24:30.543Z,5.30
2022-11-20T04:27:18.273Z,3.00
2022-11-20T04:30:06.653Z,2.40
2022-11-20T04:32:55.036Z,3.00
2022-11-20T04:35:43.208Z,3.20
2022-11-20T04:38:34.727Z,3.90
2022-11-20T04:41:25.026Z,3.00
2022-11-20T04:44:13.850Z,3.00
2022-11-20T04:47:02.003Z,3.00
2022-11-20T04:49:51.651Z,3.00
2022-11-20T04:52:39.212Z,2.90
2022-11-20T04:55:27.172Z,2.90
2022-11-20T04:58:16.615Z,2.90
2022-11-20T05:01:05.245Z,2.90
2022-11-20T05:03:54.306Z,2.80
2022-11-20T05:06:46.742Z,2.80
2022-11-20T05:09:35.083Z,2.70
2022-11-20T05:12:25.052Z,2.90
2022-11-20T05:15:18.660Z,2.80
2022-11-20T05:18:09.302Z,2.80
2022-11-20T05:21:00.880Z,2.80
2022-11-20T05:23:49.308Z,2.90
2022-11-20T05:26:37.677Z,2.90
2022-11-20T05:29:26.609Z,2.90
2022-11-20T05:32:16.490Z,2.90
2022-11-20T05:35:06.863Z,2.90
2022-11-20T05:37:56.458Z,2.90
2022-11-20T05:41:03.726Z,3.00
2022-11-20T05:43:52.358Z,2.50
2022-11-20T05:46:42.144Z,2.50
2022-11-20T05:49:31.458Z,5.30
2022-11-20T05:52:19.881Z,3.00
2022-11-20T05:55:13.534Z,3.00
2022-11-20T05:58:04.266Z,2.30
2022-11-20T06:00:53.730Z,3.00
2022-11-20T06:03:48.930Z,3.10
2022-11-20T06:06:38.852Z,3.10
2022-11-20T06:09:29.374Z,3.10
2022-11-20T06:12:17.469Z,3.10
2022-11-20T06:15:06.400Z,3.00
2022-11-20T06:18:02.775Z,3.10
2022-11-20T06:20:51.072Z,3.00
2022-11-20T06:23:42.532Z,3.00
2022-11-20T06:26:30.226Z,3.00
2022-11-20T06:29:18.449Z,3.00
2022-11-20T06:32:10.588Z,3.10
2022-11-20T06:34:59.096Z,3.00
2022-11-20T06:37:47.857Z,3.10
2022-11-20T06:40:41.971Z,3.10
2022-11-20T06:43:31.051Z,3.00
2022-11-20T06:46:21.297Z,3.10
2022-11-20T06:49:09.405Z,3.10
2022-11-20T06:51:57.385Z,5.00
2022-11-20T06:54:45.696Z,3.10
2022-11-20T06:57:35.722Z,3.10
2022-11-20T07:00:30.849Z,3.10
2022-11-20T07:03:24.324Z,2.60
2022-11-20T07:06:12.568Z,3.20
2022-11-20T07:09:08.555Z,3.20
2022-11-20T07:11:59.080Z,3.20
2022-11-20T07:14:48.474Z,3.30
2022-11-20T07:17:46.673Z,3.30
2022-11-20T07:20:34.679Z,3.50
2022-11-20T07:23:22.839Z,3.30
2022-11-20T07:26:11.620Z,3.40
2022-11-20T07:29:07.612Z,3.40
2022-11-20T07:31:57.817Z,3.40
2022-11-20T07:34:45.734Z,3.50
2022-11-20T07:37:38.059Z,3.50
2022-11-20T07:40:25.909Z,3.40
2022-11-20T07:43:13.581Z,3.70
2022-11-20T07:46:05.021Z,3.60
2022-11-20T07:48:55.679Z,3.90
2022-11-20T07:51:44.528Z,3.70
2022-11-20T07:54:32.447Z,3.80
2022-11-20T07:57:27.119Z,3.80
2022-11-20T08:00:16.377Z,3.80
2022-11-20T08:03:07.725Z,3.90
2022-11-20T08:05:57.544Z,3.90
2022-11-20T08:08:49.176Z,4.00
2022-11-20T08:11:54.596Z,4.10
2022-11-20T08:14:42.647Z,4.00
2022-11-20T08:17:30.396Z,4.10
2022-11-20T08:20:18.006Z,4.20
2022-11-20T08:23:10.241Z,4.40
2022-11-20T08:26:03.281Z,4.30
2022-11-20T08:28:50.651Z,4.40
2022-11-20T08:31:39.207Z,2.00
2022-11-20T08:34:27.570Z,4.40
2022-11-20T08:37:17.156Z,4.50
2022-11-20T08:40:10.368Z,4.50
2022-11-20T08:43:01.027Z,4.40
2022-11-20T08:45:48.726Z,4.80
2022-11-20T08:48:41.720Z,6.80
2022-11-20T08:51:33.190Z,5.90
2022-11-20T08:54:25.603Z,4.80
2022-11-20T08:57:19.171Z,4.90
2022-11-20T09:00:09.571Z,4.90
2022-11-20T09:02:59.794Z,5.00
2022-11-20T09:05:47.701Z,5.10
2022-11-20T09:08:37.311Z,5.10
2022-11-20T09:11:27.978Z,5.10
2022-11-20T09:14:22.941Z,5.10
2022-11-20T09:17:14.549Z,5.30
2022-11-20T09:20:02.978Z,5.20
2022-11-20T09:22:56.246Z,5.30
2022-11-20T09:25:44.165Z,5.40
2022-11-20T09:28:33.024Z,5.40
2022-11-20T09:31:27.162Z,5.50
2022-11-20T09:34:14.637Z,5.50
2022-11-20T09:37:06.271Z,5.70
2022-11-20T09:39:55.936Z,5.80
2022-11-20T09:42:47.562Z,5.80
2022-11-20T09:45:43.473Z,4.90
2022-11-20T09:48:40.664Z,6.10
2022-11-20T09:51:38.221Z,5.90
2022-11-20T09:54:31.221Z,6.00
2022-11-20T09:57:21.898Z,6.10
2022-11-20T10:00:15.337Z,6.20
2022-11-20T10:03:08.529Z,6.20
2022-11-20T10:05:59.356Z,6.30
2022-11-20T10:08:50.616Z,6.30
2022-11-20T10:11:46.336Z,6.40
2022-11-20T10:14:39.840Z,6.50
2022-11-20T10:17:35.400Z,6.70
2022-11-20T10:20:37.325Z,8.50
2022-11-20T10:23:38.605Z,6.70
2022-11-20T10:26:32.964Z,6.70
2022-11-20T10:29:24.956Z,6.80
2022-11-20T10:32:19.585Z,6.80
2022-11-20T10:35:19.527Z,6.90
2022-11-20T10:38:10.455Z,6.90
2022-11-20T10:41:17.985Z,7.10
2022-11-20T10:44:09.254Z,7.10
2022-11-20T10:46:57.506Z,7.10
2022-11-20T10:49:46.614Z,7.10
2022-11-20T10:52:40.491Z,7.20
2022-11-20T10:55:32.671Z,7.30
2022-11-20T10:58:26.608Z,7.40
2022-11-20T11:01:22.636Z,7.50
2022-11-20T11:04:20.796Z,7.70
2022-11-20T11:07:10.947Z,7.70
2022-11-20T11:10:01.304Z,7.80
2022-11-20T11:12:50.447Z,7.90
2022-11-20T11:15:41.458Z,8.00
2022-11-20T11:18:31.107Z,8.30
2022-11-20T11:21:24.226Z,8.10
2022-11-20T11:24:41.036Z,8.10
2022-11-20T11:27:29.764Z,8.20
2022-11-20T11:30:21.063Z,8.20
2022-11-20T11:33:12.404Z,8.20
2022-11-20T11:36:01.526Z,8.20
2022-11-20T11:38:56.081Z,8.20
2022-11-20T11:41:44.474Z,8.20
2022-11-20T11:44:50.770Z,8.20
2022-11-20T11:47:47.046Z,8.20
2022-11-20T11:50:39.181Z,8.20
2022-11-20T11:53:28.843Z,8.20
2022-11-20T11:56:17.303Z,8.20
2022-11-20T11:59:07.214Z,8.20
2022-11-20T12:02:03.666Z,8.10
2022-11-20T12:04:56.218Z,8.20
2022-11-20T12:07:50.300Z,8.30
2022-11-20T12:10:42.653Z,8.40
2022-11-20T12:13:45.235Z,8.40
2022-11-20T12:16:37.866Z,8.30
2022-11-20T12:19:29.076Z,8.30
2022-11-20T12:22:24.683Z,8.20
2022-11-20T12:25:16.843Z,8.10
2022-11-20T12:28:31.084Z,8.00
2022-11-20T12:31:28.945Z,7.90
2022-11-20T12:34:28.856Z,8.00
2022-11-20T12:37:30.523Z,7.90
2022-11-20T12:40:31.190Z,7.70
2022-11-20T12:43:40.866Z,7.60
2022-11-20T12:46:34.274Z,7.50
2022-11-20T12:49:30.824Z,7.40
2022-11-20T12:52:26.852Z,7.30
2022-11-20T12:55:28.993Z,7.30
2022-11-20T12:58:22.305Z,7.20
2022-11-20T13:01:35.882Z,7.10
2022-11-20T13:04:38.301Z,7.20
2022-11-20T13:07:39.609Z,7.20
2022-11-20T13:10:34.102Z,7.10
2022-11-20T13:13:26.107Z,7.10
2022-11-20T13:16:19.877Z,7.00
2022-11-20T13:19:08.026Z,7.10
2022-11-20T13:21:56.669Z,7.10
2022-11-20T13:24:54.074Z,7.10
2022-11-20T13:27:54.624Z,7.10
2022-11-20T13:30:51.422Z,7.20
2022-11-20T13:33:41.648Z,7.20
2022-11-20T13:36:32.241Z,7.30
2022-11-20T13:39:31.940Z,7.20
2022-11-20T13:42:26.580Z,7.20
2022-11-20T13:45:29.685Z,7.30
2022-11-20T13:48:22.037Z,7.20
2022-11-20T13:51:17.173Z,7.60
2022-11-20T13:54:11.289Z,7.20
2022-11-20T13:57:05.089Z,7.10
2022-11-20T13:59:58.846Z,7.10
2022-11-20T14:02:54.496Z,5.50
2022-11-20T14:05:46.401Z,7.10
2022-11-20T14:08:40.915Z,7.10
2022-11-20T14:11:31.599Z,8.10
2022-11-20T14:14:22.146Z,7.10
2022-11-20T14:17:11.121Z,7.10
2022-11-20T14:20:04.930Z,7.10
2022-11-20T14:22:53.801Z,7.10
2022-11-20T14:25:44.739Z,6.90
2022-11-20T14:28:36.529Z,7.20
2022-11-20T14:31:29.771Z,7.40
2022-11-20T14:34:22.814Z,7.20
2022-11-20T14:37:22.944Z,7.20
2022-11-20T14:40:29.549Z,7.20
2022-11-20T14:43:22.657Z,7.20
2022-11-20T14:46:14.082Z,7.40
2022-11-20T14:49:05.353Z,7.10
2022-11-20T14:52:00.969Z,7.10
2022-11-20T14:54:51.694Z,7.10
2022-11-20T14:57:39.915Z,7.20
2022-11-20T15:00:32.919Z,7.10
2022-11-20T15:03:21.552Z,7.10
2022-11-20T15:06:10.345Z,7.20
2022-11-20T15:08:57.949Z,7.20
2022-11-20T15:11:56.544Z,7.20
2022-11-20T15:17:32.716Z,7.20
2022-11-20T15:20:27.973Z,7.40
2022-11-20T15:23:21.476Z,7.30
2022-11-20T15:26:15.417Z,7.30
2022-11-20T15:29:07.501Z,7.20
2022-11-20T15:31:57.723Z,7.30
2022-11-20T15:34:45.245Z,7.30
2022-11-20T15:37:34.075Z,7.30
2022-11-20T15:40:21.325Z,7.30
2022-11-20T15:43:13.352Z,7.50
2022-11-20T15:46:07.591Z,7.40
2022-11-20T15:48:57.446Z,7.50
2022-11-20T15:51:47.566Z,7.50
2022-11-20T15:54:35.703Z,7.60
2022-11-20T15:57:26.478Z,7.60
2022-11-20T16:00:23.226Z,7.70
2022-11-20T16:03:15.832Z,8.00
2022-11-20T16:06:08.502Z,7.80
2022-11-20T16:08:59.962Z,7.70
2022-11-20T16:11:48.197Z,7.80
2022-11-20T16:14:55.323Z,7.90
2022-11-20T16:17:48.113Z,9.10
2022-11-20T16:20:37.311Z,8.00
2022-11-20T16:23:28.100Z,8.10
2022-11-20T16:26:20.259Z,7.80
2022-11-20T16:29:09.001Z,7.80
2022-11-20T16:32:00.927Z,7.80
2022-11-20T16:34:49.039Z,7.70
2022-11-20T16:37:45.928Z,7.80
2022-11-20T16:40:34.717Z,7.90
2022-11-20T16:43:23.209Z,8.00
2022-11-20T16:46:16.835Z,7.90
2022-11-20T16:49:08.938Z,7.90
2022-11-20T16:52:09.184Z,7.90
2022-11-20T16:54:58.470Z,7.90
2022-11-20T16:57:46.653Z,8.00
2022-11-20T17:00:39.987Z,7.90
2022-11-20T17:03:33.147Z,8.00
2022-11-20T17:06:22.093Z,9.40
2022-11-20T17:09:13.989Z,8.10
2022-11-20T17:12:19.239Z,8.10
2022-11-20T17:15:07.951Z,8.00
2022-11-20T17:17:56.827Z,7.90
2022-11-20T17:20:52.948Z,8.10
2022-11-20T17:23:45.416Z,8.00
2022-11-20T17:26:33.396Z,8.10
2022-11-20T17:29:24.493Z,8.10
2022-11-20T17:32:15.745Z,6.70
2022-11-20T17:35:04.938Z,7.90
2022-11-20T17:37:56.052Z,7.90
2022-11-20T17:43:35.886Z,7.90
2022-11-20T17:46:29.399Z,7.80
2022-11-20T17:49:22.745Z,7.70
2022-11-20T17:52:12.541Z,8.00
2022-11-20T17:55:00.284Z,7.60
2022-11-20T17:58:02.921Z,7.40
2022-11-20T18:00:50.320Z,7.50
2022-11-20T18:03:39.895Z,7.40
2022-11-20T18:06:30.966Z,7.40
2022-11-20T18:09:22.464Z,7.40
2022-11-20T18:12:13.959Z,7.50
2022-11-20T18:15:02.123Z,7.70
2022-11-20T18:17:49.376Z,7.60
2022-11-20T18:20:40.141Z,7.30
2022-11-20T18:23:28.778Z,7.60
2022-11-20T18:26:16.420Z,7.50
2022-11-20T18:29:07.300Z,7.50
2022-11-20T18:31:55.568Z,7.40
2022-11-20T18:34:43.882Z,7.40
2022-11-20T18:37:33.911Z,7.40
2022-11-20T18:40:23.802Z,7.30
2022-11-20T18:43:30.096Z,7.30
2022-11-20T18:46:19.566Z,8.90
2022-11-20T18:49:07.459Z,7.20
2022-11-20T18:51:57.653Z,7.20
2022-11-20T18:54:50.058Z,7.20
2022-11-20T18:57:37.362Z,7.30
2022-11-20T19:00:24.987Z,9.10
2022-11-20T19:03:12.455Z,7.30
2022-11-20T19:06:02.504Z,7.30
2022-11-20T19:08:52.941Z,7.40
2022-11-20T19:11:42.969Z,7.30
2022-11-20T19:14:32.038Z,7.30
2022-11-20T19:17:20.407Z,7.20
2022-11-20T19:20:08.646Z,7.30
2022-11-20T19:22:58.120Z,7.30
2022-11-20T19:25:47.306Z,7.30
2022-11-20T19:28:40.865Z,9.10
2022-11-20T19:31:28.428Z,8.40
2022-11-20T19:34:18.919Z,7.50
2022-11-20T19:37:14.813Z,7.60
2022-11-20T19:40:08.404Z,7.70
2022-11-20T19:42:58.063Z,7.60
2022-11-20T19:45:53.168Z,7.60
2022-11-20T19:48:41.717Z,7.60
2022-11-20T19:51:31.266Z,7.50
2022-11-20T19:54:19.895Z,7.40
2022-11-20T19:57:07.286Z,7.40
2022-11-20T19:59:55.754Z,7.40
2022-11-20T20:02:44.982Z,7.40
2022-11-20T20:05:35.181Z,6.20
2022-11-20T20:08:28.380Z,7.40
2022-11-20T20:11:17.370Z,6.30
2022-11-20T20:14:05.082Z,7.30
2022-11-20T20:16:56.213Z,7.30
2022-11-20T20:19:45.348Z,7.30
2022-11-20T20:22:32.734Z,6.90
2022-11-20T20:25:20.244Z,7.30
2022-11-20T20:28:10.797Z,7.30
2022-11-20T20:30:58.753Z,7.30
2022-11-20T20:33:46.234Z,7.30
2022-11-20T20:36:38.462Z,7.30
2022-11-20T20:39:26.115Z,7.30
2022-11-20T20:42:14.213Z,7.40
2022-11-20T20:45:11.147Z,7.40
2022-11-20T20:48:00.388Z,7.40
2022-11-20T20:50:54.670Z,7.20
2022-11-20T20:53:46.851Z,7.30
2022-11-20T20:56:38.305Z,7.20
2022-11-20T20:59:26.457Z,6.90
2022-11-20T21:02:15.917Z,7.10
2022-11-20T21:05:05.729Z,7.10
2022-11-20T21:08:10.883Z,7.10
2022-11-20T21:11:04.152Z,7.00
2022-11-20T21:13:53.904Z,6.90
2022-11-20T21:16:50.347Z,6.90
2022-11-20T21:19:38.235Z,8.20
2022-11-20T21:22:36.340Z,7.10
2022-11-20T21:25:25.123Z,6.90
2022-11-20T21:28:18.721Z,6.70
2022-11-20T21:31:09.544Z,6.80
2022-11-20T21:33:58.863Z,6.70
2022-11-20T21:36:52.884Z,6.70
2022-11-20T21:39:50.744Z,7.20
2022-11-20T21:42:44.065Z,6.70
2022-11-20T21:45:38.473Z,6.40
2022-11-20T21:48:29.272Z,6.60
2022-11-20T21:51:17.936Z,6.60
2022-11-20T21:54:06.531Z,6.50
2022-11-20T21:56:55.203Z,6.60
2022-11-20T21:59:44.944Z,6.60
2022-11-20T22:02:34.682Z,6.50
2022-11-20T22:05:24.553Z,6.00
2022-11-20T22:08:12.199Z,6.60
2022-11-20T22:11:01.225Z,6.50
2022-11-20T22:14:06.535Z,6.60
2022-11-20T22:16:54.749Z,6.60
2022-11-20T22:19:46.535Z,6.60
2022-11-20T22:22:37.073Z,6.60
2022-11-20T22:25:25.747Z,6.70
2022-11-20T22:28:13.576Z,6.70
2022-11-20T22:31:06.175Z,6.70
2022-11-20T22:33:54.931Z,6.70
2022-11-20T22:36:50.615Z,6.80
2022-11-20T22:39:48.830Z,6.90
2022-11-20T22:42:38.001Z,6.60
2022-11-20T22:45:25.867Z,6.60
2022-11-20T22:48:13.805Z,6.60
2022-11-20T22:51:06.070Z,6.50
2022-11-20T22:54:10.103Z,6.60
2022-11-20T22:56:57.990Z,6.90
2022-11-20T22:59:48.128Z,6.40
2022-11-20T23:02:35.614Z,4.20
2022-11-20T23:05:31.271Z,6.40
2022-11-20T23:08:21.634Z,6.50
2022-11-20T23:11:15.243Z,6.40
2022-11-20T23:14:06.114Z,6.30
2022-11-20T23:16:53.501Z,6.30
2022-11-20T23:19:52.529Z,6.30
2022-11-20T23:22:40.807Z,6.30
2022-11-20T23:25:28.874Z,7.20
2022-11-20T23:28:17.662Z,6.30
2022-11-20T23:31:05.963Z,6.20
2022-11-20T23:33:56.825Z,6.20
2022-11-20T23:36:48.597Z,6.20
2022-11-20T23:39:36.425Z,6.20
2022-11-20T23:42:24.375Z,6.20
2022-11-20T23:45:13.839Z,6.20
2022-11-20T23:48:04.167Z,6.20
2022-11-20T23:50:52.922Z,6.30
2022-11-20T23:53:40.979Z,6.30
2022-11-20T23:56:29.632Z,6.20
2022-11-20T23:59:16.989Z,7.00
